Airfield :
LOGIN :

Register | Disclaimer

   EN    FR    IT 

 










Legend :    VFR   Marginal VFR   IFR   Intensive IFR   Very Intensive IFR
Visi :
Ceiling :
>= 8 km
>= 3000ft
5 to 8 km
1000 to 3000 ft
1500m to 5 km
500 to 1000 ft
800 to 1500m
200 to 500 ft
< 800m
< 200 ft
Symbols :   Thunderstorms  Fog  Heavy snow  Heavy precipitations  Wind > 20 kt
SIGMETs :     Misc.  Thunderstorms  Icing  Turbulence  Mountain Waves  Volcanic Ashes






- Airport Elevation : 17 ft
- IATA code : CPH


EKCH - København - Kastrup (Copenhagen)

CURRENT METAR :
  • 070320Z AUTO 28004KT 9999 FEW030/// BKN100/// 01/M00 Q1008 NOSIG

EXPIRED METARs :
  • 070250Z AUTO 28004KT 9999 SCT028/// BKN100/// 02/M00 Q1008 NOSIG
  • 070220Z AUTO 29006KT 9999 BKN030/// BKN098/// 02/00 Q1009 NOSIG
  • 070150Z AUTO 29005KT 9999 FEW029/// BKN090/// 02/M00 Q1009 NOSIG
  • 070120Z AUTO 29004KT 9999 OVC090/// 02/M00 Q1009 NOSIG
  • 070050Z AUTO 28005KT 9999 BKN028/// BKN093/// 02/M00 Q1009 NOSIG

TAF TAF EKCH
Valid from the 07 at 00:00 until the 08 at 00:00 UTC


062322Z 0700/0724 28007KT 9999 BKN020
TEMPO 0703/0708 2000 -SHSNRA BKN008 SCT020CB
TEMPO 0708/0721 1000 SHSN BKN008 SCT020CB



MET'MAP, your aeronautical weather chart ! - Copyright ORBIFLY December 2007 - Disclaimer

ORBIFLY MET'MAP TEAM :

Programming & Development : Alexandra Zaïnal
Original concept : Baudouin d'Aumeries
Technical & hardware support : Manuel Goepfert
Assistance : Marc-Olivier Méhu




SOURCES & CREDITS :

   NOAA